sensor_id;sensor_type;location;lat;lon;timestamp;P1;durP1;ratioP1;P2;durP2;ratioP2
55575;SDS011;41437;45.478;9.116;2023-02-01T00:02:46;87.15;;;47.42;;
55575;SDS011;41437;45.478;9.116;2023-02-01T00:05:54;85.38;;;46.42;;
55575;SDS011;41437;45.478;9.116;2023-02-01T00:08:57;85.47;;;47.50;;
55575;SDS011;41437;45.478;9.116;2023-02-01T00:11:59;90.57;;;46.47;;
55575;SDS011;41437;45.478;9.116;2023-02-01T00:18:04;82.25;;;44.53;;
55575;SDS011;41437;45.478;9.116;2023-02-01T00:21:05;85.18;;;46.15;;
55575;SDS011;41437;45.478;9.116;2023-02-01T00:24:08;84.55;;;47.22;;
55575;SDS011;41437;45.478;9.116;2023-02-01T00:27:13;87.10;;;45.53;;
55575;SDS011;41437;45.478;9.116;2023-02-01T00:30:17;86.47;;;44.92;;
55575;SDS011;41437;45.478;9.116;2023-02-01T00:33:19;74.93;;;44.05;;
55575;SDS011;41437;45.478;9.116;2023-02-01T00:36:24;87.75;;;44.97;;
55575;SDS011;41437;45.478;9.116;2023-02-01T00:39:25;81.00;;;45.35;;
55575;SDS011;41437;45.478;9.116;2023-02-01T00:42:31;76.63;;;44.67;;
55575;SDS011;41437;45.478;9.116;2023-02-01T00:45:33;80.68;;;44.15;;
55575;SDS011;41437;45.478;9.116;2023-02-01T00:48:34;76.15;;;43.97;;
55575;SDS011;41437;45.478;9.116;2023-02-01T00:51:36;77.05;;;43.35;;
55575;SDS011;41437;45.478;9.116;2023-02-01T00:54:38;79.18;;;44.00;;
55575;SDS011;41437;45.478;9.116;2023-02-01T00:57:41;79.75;;;43.90;;
55575;SDS011;41437;45.478;9.116;2023-02-01T01:00:42;77.45;;;44.83;;
55575;SDS011;41437;45.478;9.116;2023-02-01T01:03:44;77.68;;;43.28;;
55575;SDS011;41437;45.478;9.116;2023-02-01T01:06:48;71.28;;;42.28;;
55575;SDS011;41437;45.478;9.116;2023-02-01T01:09:49;74.30;;;42.22;;
55575;SDS011;41437;45.478;9.116;2023-02-01T01:12:52;79.47;;;43.13;;
55575;SDS011;41437;45.478;9.116;2023-02-01T01:15:54;77.78;;;43.60;;
55575;SDS011;41437;45.478;9.116;2023-02-01T01:18:56;71.32;;;42.33;;
55575;SDS011;41437;45.478;9.116;2023-02-01T01:21:58;76.43;;;43.22;;
55575;SDS011;41437;45.478;9.116;2023-02-01T01:25:00;74.18;;;44.25;;
55575;SDS011;41437;45.478;9.116;2023-02-01T01:28:04;72.13;;;40.38;;
55575;SDS011;41437;45.478;9.116;2023-02-01T01:31:07;75.88;;;42.33;;
55575;SDS011;41437;45.478;9.116;2023-02-01T01:34:09;71.43;;;40.72;;
55575;SDS011;41437;45.478;9.116;2023-02-01T01:37:11;70.70;;;40.35;;
55575;SDS011;41437;45.478;9.116;2023-02-01T01:40:13;69.75;;;39.20;;
55575;SDS011;41437;45.478;9.116;2023-02-01T01:43:18;69.15;;;38.13;;
55575;SDS011;41437;45.478;9.116;2023-02-01T01:46:22;68.25;;;38.65;;
55575;SDS011;41437;45.478;9.116;2023-02-01T01:49:26;65.43;;;37.22;;
55575;SDS011;41437;45.478;9.116;2023-02-01T01:52:28;64.68;;;36.45;;
55575;SDS011;41437;45.478;9.116;2023-02-01T01:55:30;65.25;;;37.45;;
55575;SDS011;41437;45.478;9.116;2023-02-01T01:58:36;63.45;;;36.95;;
55575;SDS011;41437;45.478;9.116;2023-02-01T02:01:38;64.23;;;35.97;;
55575;SDS011;41437;45.478;9.116;2023-02-01T02:04:40;59.28;;;35.72;;
55575;SDS011;41437;45.478;9.116;2023-02-01T02:07:43;61.15;;;35.65;;
55575;SDS011;41437;45.478;9.116;2023-02-01T02:10:47;60.40;;;35.08;;
55575;SDS011;41437;45.478;9.116;2023-02-01T02:14:02;60.33;;;34.13;;
55575;SDS011;41437;45.478;9.116;2023-02-01T02:17:12;62.58;;;34.80;;
55575;SDS011;41437;45.478;9.116;2023-02-01T02:20:30;54.60;;;32.15;;
55575;SDS011;41437;45.478;9.116;2023-02-01T02:23:51;60.42;;;33.42;;
55575;SDS011;41437;45.478;9.116;2023-02-01T02:27:15;52.78;;;32.22;;
55575;SDS011;41437;45.478;9.116;2023-02-01T02:30:34;55.10;;;31.15;;
55575;SDS011;41437;45.478;9.116;2023-02-01T02:33:46;59.38;;;34.13;;
55575;SDS011;41437;45.478;9.116;2023-02-01T02:37:04;54.13;;;31.92;;
55575;SDS011;41437;45.478;9.116;2023-02-01T02:40:15;54.22;;;32.55;;
55575;SDS011;41437;45.478;9.116;2023-02-01T02:43:22;52.17;;;31.20;;
55575;SDS011;41437;45.478;9.116;2023-02-01T02:46:48;55.72;;;29.98;;
55575;SDS011;41437;45.478;9.116;2023-02-01T02:50:12;51.00;;;30.77;;
55575;SDS011;41437;45.478;9.116;2023-02-01T02:53:39;50.97;;;29.52;;
55575;SDS011;41437;45.478;9.116;2023-02-01T02:57:09;53.40;;;30.65;;
55575;SDS011;41437;45.478;9.116;2023-02-01T03:00:31;51.67;;;30.33;;
55575;SDS011;41437;45.478;9.116;2023-02-01T03:03:54;50.38;;;30.08;;
55575;SDS011;41437;45.478;9.116;2023-02-01T03:07:15;57.80;;;31.50;;
55575;SDS011;41437;45.478;9.116;2023-02-01T03:13:59;51.75;;;29.75;;
55575;SDS011;41437;45.478;9.116;2023-02-01T03:17:03;54.90;;;30.10;;
55575;SDS011;41437;45.478;9.116;2023-02-01T03:20:09;55.30;;;30.02;;
55575;SDS011;41437;45.478;9.116;2023-02-01T03:23:16;50.38;;;28.48;;
55575;SDS011;41437;45.478;9.116;2023-02-01T03:26:23;45.42;;;26.98;;
55575;SDS011;41437;45.478;9.116;2023-02-01T03:29:29;49.58;;;26.92;;
55575;SDS011;41437;45.478;9.116;2023-02-01T03:32:34;48.63;;;26.73;;
55575;SDS011;41437;45.478;9.116;2023-02-01T03:35:55;44.35;;;25.60;;
55575;SDS011;41437;45.478;9.116;2023-02-01T03:39:09;46.50;;;25.27;;
55575;SDS011;41437;45.478;9.116;2023-02-01T03:42:18;44.83;;;24.27;;
55575;SDS011;41437;45.478;9.116;2023-02-01T03:45:26;42.85;;;24.02;;
55575;SDS011;41437;45.478;9.116;2023-02-01T03:48:32;44.47;;;23.55;;
55575;SDS011;41437;45.478;9.116;2023-02-01T03:51:35;45.88;;;25.80;;
55575;SDS011;41437;45.478;9.116;2023-02-01T03:54:41;40.15;;;23.77;;
55575;SDS011;41437;45.478;9.116;2023-02-01T03:57:45;44.65;;;24.65;;
55575;SDS011;41437;45.478;9.116;2023-02-01T04:00:55;46.20;;;24.48;;
55575;SDS011;41437;45.478;9.116;2023-02-01T04:03:58;39.80;;;22.52;;
55575;SDS011;41437;45.478;9.116;2023-02-01T04:07:00;45.92;;;23.80;;
55575;SDS011;41437;45.478;9.116;2023-02-01T04:10:04;39.50;;;22.63;;
55575;SDS011;41437;45.478;9.116;2023-02-01T04:13:06;39.88;;;23.55;;
55575;SDS011;41437;45.478;9.116;2023-02-01T04:16:08;38.22;;;22.15;;
55575;SDS011;41437;45.478;9.116;2023-02-01T04:19:10;39.55;;;22.42;;
55575;SDS011;41437;45.478;9.116;2023-02-01T04:22:12;38.78;;;20.50;;
55575;SDS011;41437;45.478;9.116;2023-02-01T04:25:15;38.33;;;20.80;;
55575;SDS011;41437;45.478;9.116;2023-02-01T04:28:17;40.80;;;21.85;;
55575;SDS011;41437;45.478;9.116;2023-02-01T04:31:19;34.65;;;19.73;;
55575;SDS011;41437;45.478;9.116;2023-02-01T04:34:25;36.40;;;20.30;;
55575;SDS011;41437;45.478;9.116;2023-02-01T04:37:28;35.22;;;20.95;;
55575;SDS011;41437;45.478;9.116;2023-02-01T04:40:33;37.42;;;20.83;;
55575;SDS011;41437;45.478;9.116;2023-02-01T04:43:37;34.95;;;19.95;;
55575;SDS011;41437;45.478;9.116;2023-02-01T04:46:39;35.08;;;20.10;;
55575;SDS011;41437;45.478;9.116;2023-02-01T04:49:41;32.65;;;19.17;;
55575;SDS011;41437;45.478;9.116;2023-02-01T04:52:43;34.10;;;19.38;;
55575;SDS011;41437;45.478;9.116;2023-02-01T04:55:47;35.70;;;20.17;;
55575;SDS011;41437;45.478;9.116;2023-02-01T04:58:51;37.00;;;19.58;;
55575;SDS011;41437;45.478;9.116;2023-02-01T05:01:52;35.20;;;20.27;;
55575;SDS011;41437;45.478;9.116;2023-02-01T05:04:54;34.17;;;20.00;;
55575;SDS011;41437;45.478;9.116;2023-02-01T05:07:56;36.17;;;19.48;;
55575;SDS011;41437;45.478;9.116;2023-02-01T05:11:01;31.15;;;19.20;;
55575;SDS011;41437;45.478;9.116;2023-02-01T05:14:03;33.85;;;19.10;;
55575;SDS011;41437;45.478;9.116;2023-02-01T05:17:04;32.42;;;18.25;;
55575;SDS011;41437;45.478;9.116;2023-02-01T05:20:07;33.33;;;18.92;;
55575;SDS011;41437;45.478;9.116;2023-02-01T05:23:09;32.88;;;19.67;;
55575;SDS011;41437;45.478;9.116;2023-02-01T05:26:12;37.72;;;19.05;;
55575;SDS011;41437;45.478;9.116;2023-02-01T05:29:14;33.33;;;18.88;;
55575;SDS011;41437;45.478;9.116;2023-02-01T05:32:17;31.20;;;17.48;;
55575;SDS011;41437;45.478;9.116;2023-02-01T05:35:19;34.47;;;18.33;;
55575;SDS011;41437;45.478;9.116;2023-02-01T05:38:21;35.53;;;18.60;;
55575;SDS011;41437;45.478;9.116;2023-02-01T05:41:24;28.55;;;17.08;;
55575;SDS011;41437;45.478;9.116;2023-02-01T05:44:26;30.80;;;16.87;;
55575;SDS011;41437;45.478;9.116;2023-02-01T05:47:28;30.95;;;16.80;;
55575;SDS011;41437;45.478;9.116;2023-02-01T05:50:30;30.35;;;16.33;;
55575;SDS011;41437;45.478;9.116;2023-02-01T05:53:32;33.40;;;17.27;;
55575;SDS011;41437;45.478;9.116;2023-02-01T05:56:35;34.33;;;19.00;;
55575;SDS011;41437;45.478;9.116;2023-02-01T05:59:38;31.20;;;18.60;;
55575;SDS011;41437;45.478;9.116;2023-02-01T06:02:41;32.63;;;17.63;;
55575;SDS011;41437;45.478;9.116;2023-02-01T06:05:43;34.75;;;18.73;;
55575;SDS011;41437;45.478;9.116;2023-02-01T06:08:45;36.75;;;17.40;;
55575;SDS011;41437;45.478;9.116;2023-02-01T06:11:48;30.95;;;16.85;;
55575;SDS011;41437;45.478;9.116;2023-02-01T06:14:49;29.40;;;16.30;;
55575;SDS011;41437;45.478;9.116;2023-02-01T06:17:51;28.83;;;16.52;;
55575;SDS011;41437;45.478;9.116;2023-02-01T06:20:54;28.02;;;16.65;;
55575;SDS011;41437;45.478;9.116;2023-02-01T06:23:56;26.83;;;16.50;;
55575;SDS011;41437;45.478;9.116;2023-02-01T06:27:00;31.35;;;17.85;;
55575;SDS011;41437;45.478;9.116;2023-02-01T06:30:02;36.58;;;17.88;;
55575;SDS011;41437;45.478;9.116;2023-02-01T06:33:07;29.95;;;16.70;;
55575;SDS011;41437;45.478;9.116;2023-02-01T06:36:09;30.83;;;17.30;;
55575;SDS011;41437;45.478;9.116;2023-02-01T06:39:13;29.15;;;17.15;;
55575;SDS011;41437;45.478;9.116;2023-02-01T06:42:18;29.80;;;16.33;;
55575;SDS011;41437;45.478;9.116;2023-02-01T06:45:20;30.65;;;17.23;;
55575;SDS011;41437;45.478;9.116;2023-02-01T06:48:22;28.80;;;16.25;;
55575;SDS011;41437;45.478;9.116;2023-02-01T06:51:25;34.38;;;17.27;;
55575;SDS011;41437;45.478;9.116;2023-02-01T06:54:28;32.17;;;16.53;;
55575;SDS011;41437;45.478;9.116;2023-02-01T06:57:33;29.90;;;17.65;;
55575;SDS011;41437;45.478;9.116;2023-02-01T07:00:38;28.90;;;16.70;;
55575;SDS011;41437;45.478;9.116;2023-02-01T07:03:41;33.92;;;16.77;;
55575;SDS011;41437;45.478;9.116;2023-02-01T07:06:43;30.92;;;16.92;;
55575;SDS011;41437;45.478;9.116;2023-02-01T07:09:45;31.98;;;17.35;;
55575;SDS011;41437;45.478;9.116;2023-02-01T07:12:48;34.78;;;17.35;;
55575;SDS011;41437;45.478;9.116;2023-02-01T07:15:50;32.67;;;17.38;;
55575;SDS011;41437;45.478;9.116;2023-02-01T07:18:52;35.15;;;18.25;;
55575;SDS011;41437;45.478;9.116;2023-02-01T07:21:55;37.67;;;18.30;;
55575;SDS011;41437;45.478;9.116;2023-02-01T07:24:56;33.72;;;18.40;;
55575;SDS011;41437;45.478;9.116;2023-02-01T07:27:59;32.63;;;18.15;;
55575;SDS011;41437;45.478;9.116;2023-02-01T07:34:04;32.50;;;16.73;;
55575;SDS011;41437;45.478;9.116;2023-02-01T07:37:06;33.55;;;17.00;;
55575;SDS011;41437;45.478;9.116;2023-02-01T07:40:08;37.25;;;17.50;;
55575;SDS011;41437;45.478;9.116;2023-02-01T07:43:11;37.75;;;16.77;;
55575;SDS011;41437;45.478;9.116;2023-02-01T07:46:13;33.22;;;16.38;;
55575;SDS011;41437;45.478;9.116;2023-02-01T07:49:16;31.30;;;17.00;;
55575;SDS011;41437;45.478;9.116;2023-02-01T07:52:18;31.80;;;18.35;;
55575;SDS011;41437;45.478;9.116;2023-02-01T07:55:21;34.55;;;18.52;;
55575;SDS011;41437;45.478;9.116;2023-02-01T07:58:24;36.47;;;18.73;;
55575;SDS011;41437;45.478;9.116;2023-02-01T08:01:27;35.97;;;16.50;;
55575;SDS011;41437;45.478;9.116;2023-02-01T08:04:29;37.80;;;16.95;;
55575;SDS011;41437;45.478;9.116;2023-02-01T08:07:32;32.33;;;17.40;;
55575;SDS011;41437;45.478;9.116;2023-02-01T08:10:33;29.90;;;16.48;;
55575;SDS011;41437;45.478;9.116;2023-02-01T08:13:36;29.42;;;15.50;;
55575;SDS011;41437;45.478;9.116;2023-02-01T08:16:38;30.70;;;15.73;;
55575;SDS011;41437;45.478;9.116;2023-02-01T08:19:39;30.38;;;15.85;;
55575;SDS011;41437;45.478;9.116;2023-02-01T08:22:41;31.35;;;15.63;;
55575;SDS011;41437;45.478;9.116;2023-02-01T08:25:43;27.60;;;15.73;;
55575;SDS011;41437;45.478;9.116;2023-02-01T08:28:47;31.70;;;16.15;;
55575;SDS011;41437;45.478;9.116;2023-02-01T08:31:50;30.23;;;16.80;;
55575;SDS011;41437;45.478;9.116;2023-02-01T08:34:54;30.27;;;17.03;;
55575;SDS011;41437;45.478;9.116;2023-02-01T08:37:55;32.03;;;16.27;;
55575;SDS011;41437;45.478;9.116;2023-02-01T08:40:57;28.67;;;16.27;;
55575;SDS011;41437;45.478;9.116;2023-02-01T08:44:00;38.05;;;17.00;;
55575;SDS011;41437;45.478;9.116;2023-02-01T08:47:02;36.57;;;18.27;;
55575;SDS011;41437;45.478;9.116;2023-02-01T08:50:04;35.05;;;17.67;;
55575;SDS011;41437;45.478;9.116;2023-02-01T08:53:07;27.80;;;15.80;;
55575;SDS011;41437;45.478;9.116;2023-02-01T08:56:09;32.70;;;15.35;;
55575;SDS011;41437;45.478;9.116;2023-02-01T08:59:13;31.73;;;15.65;;
55575;SDS011;41437;45.478;9.116;2023-02-01T09:02:19;25.17;;;14.80;;
55575;SDS011;41437;45.478;9.116;2023-02-01T09:05:20;29.70;;;14.27;;
55575;SDS011;41437;45.478;9.116;2023-02-01T09:08:23;31.30;;;15.18;;
55575;SDS011;41437;45.478;9.116;2023-02-01T09:11:24;27.77;;;15.20;;
55575;SDS011;41437;45.478;9.116;2023-02-01T09:14:28;30.48;;;15.38;;
55575;SDS011;41437;45.478;9.116;2023-02-01T09:17:30;29.52;;;13.90;;
55575;SDS011;41437;45.478;9.116;2023-02-01T09:20:31;29.50;;;14.60;;
55575;SDS011;41437;45.478;9.116;2023-02-01T09:23:33;26.90;;;14.57;;
55575;SDS011;41437;45.478;9.116;2023-02-01T09:26:36;27.13;;;14.27;;
55575;SDS011;41437;45.478;9.116;2023-02-01T09:29:41;22.50;;;13.80;;
55575;SDS011;41437;45.478;9.116;2023-02-01T09:32:43;28.58;;;14.88;;
55575;SDS011;41437;45.478;9.116;2023-02-01T09:35:44;27.38;;;13.60;;
55575;SDS011;41437;45.478;9.116;2023-02-01T09:38:46;29.35;;;14.90;;
55575;SDS011;41437;45.478;9.116;2023-02-01T09:41:51;26.90;;;14.65;;
55575;SDS011;41437;45.478;9.116;2023-02-01T09:45:16;23.00;;;13.02;;
55575;SDS011;41437;45.478;9.116;2023-02-01T09:48:24;24.88;;;13.55;;
55575;SDS011;41437;45.478;9.116;2023-02-01T09:51:32;27.80;;;14.05;;
55575;SDS011;41437;45.478;9.116;2023-02-01T09:54:39;30.67;;;13.85;;
55575;SDS011;41437;45.478;9.116;2023-02-01T09:57:44;31.13;;;15.05;;
55575;SDS011;41437;45.478;9.116;2023-02-01T10:00:55;22.25;;;13.32;;
55575;SDS011;41437;45.478;9.116;2023-02-01T10:04:01;28.40;;;13.80;;
55575;SDS011;41437;45.478;9.116;2023-02-01T10:07:13;23.90;;;13.07;;
55575;SDS011;41437;45.478;9.116;2023-02-01T10:10:28;23.23;;;14.05;;
55575;SDS011;41437;45.478;9.116;2023-02-01T10:13:39;26.00;;;14.43;;
55575;SDS011;41437;45.478;9.116;2023-02-01T10:16:56;26.27;;;13.93;;
55575;SDS011;41437;45.478;9.116;2023-02-01T10:20:07;24.42;;;13.77;;
55575;SDS011;41437;45.478;9.116;2023-02-01T10:23:25;26.20;;;13.80;;
55575;SDS011;41437;45.478;9.116;2023-02-01T10:26:37;23.40;;;13.60;;
55575;SDS011;41437;45.478;9.116;2023-02-01T10:29:43;28.42;;;13.45;;
55575;SDS011;41437;45.478;9.116;2023-02-01T10:32:51;26.55;;;14.25;;
55575;SDS011;41437;45.478;9.116;2023-02-01T10:35:58;22.00;;;13.18;;
55575;SDS011;41437;45.478;9.116;2023-02-01T10:39:04;25.60;;;12.70;;
55575;SDS011;41437;45.478;9.116;2023-02-01T10:42:07;21.83;;;11.33;;
55575;SDS011;41437;45.478;9.116;2023-02-01T10:45:11;21.15;;;10.80;;
55575;SDS011;41437;45.478;9.116;2023-02-01T10:48:17;20.75;;;10.52;;
55575;SDS011;41437;45.478;9.116;2023-02-01T10:51:20;19.67;;;10.18;;
55575;SDS011;41437;45.478;9.116;2023-02-01T10:54:32;27.42;;;9.85;;
55575;SDS011;41437;45.478;9.116;2023-02-01T10:57:35;19.65;;;9.68;;
55575;SDS011;41437;45.478;9.116;2023-02-01T11:00:39;22.42;;;9.52;;
55575;SDS011;41437;45.478;9.116;2023-02-01T11:03:50;21.05;;;9.75;;
55575;SDS011;41437;45.478;9.116;2023-02-01T11:07:03;22.80;;;9.45;;
55575;SDS011;41437;45.478;9.116;2023-02-01T11:10:09;20.00;;;9.73;;
55575;SDS011;41437;45.478;9.116;2023-02-01T11:13:38;20.98;;;10.48;;
55575;SDS011;41437;45.478;9.116;2023-02-01T11:16:41;19.50;;;10.63;;
55575;SDS011;41437;45.478;9.116;2023-02-01T11:19:54;21.63;;;8.82;;
55575;SDS011;41437;45.478;9.116;2023-02-01T11:22:58;18.20;;;8.35;;
55575;SDS011;41437;45.478;9.116;2023-02-01T11:26:01;16.88;;;8.07;;
55575;SDS011;41437;45.478;9.116;2023-02-01T11:29:10;15.40;;;7.40;;
55575;SDS011;41437;45.478;9.116;2023-02-01T11:32:18;14.93;;;6.90;;
55575;SDS011;41437;45.478;9.116;2023-02-01T11:35:23;16.90;;;7.10;;
55575;SDS011;41437;45.478;9.116;2023-02-01T11:38:26;16.27;;;7.88;;
55575;SDS011;41437;45.478;9.116;2023-02-01T11:41:31;18.42;;;7.22;;
55575;SDS011;41437;45.478;9.116;2023-02-01T11:44:34;15.70;;;7.32;;
55575;SDS011;41437;45.478;9.116;2023-02-01T11:47:39;17.25;;;9.02;;
55575;SDS011;41437;45.478;9.116;2023-02-01T11:50:44;19.23;;;9.13;;
55575;SDS011;41437;45.478;9.116;2023-02-01T11:53:58;20.10;;;8.18;;
55575;SDS011;41437;45.478;9.116;2023-02-01T11:57:13;14.98;;;7.72;;
55575;SDS011;41437;45.478;9.116;2023-02-01T12:00:30;15.90;;;7.00;;
55575;SDS011;41437;45.478;9.116;2023-02-01T12:04:01;12.73;;;7.03;;
55575;SDS011;41437;45.478;9.116;2023-02-01T12:07:27;13.90;;;5.70;;
55575;SDS011;41437;45.478;9.116;2023-02-01T12:10:40;16.20;;;5.72;;
55575;SDS011;41437;45.478;9.116;2023-02-01T12:13:54;12.52;;;6.15;;
55575;SDS011;41437;45.478;9.116;2023-02-01T12:20:49;13.55;;;6.30;;
55575;SDS011;41437;45.478;9.116;2023-02-01T12:24:22;15.98;;;6.93;;
55575;SDS011;41437;45.478;9.116;2023-02-01T12:27:49;13.38;;;6.13;;
55575;SDS011;41437;45.478;9.116;2023-02-01T12:31:19;14.68;;;5.65;;
55575;SDS011;41437;45.478;9.116;2023-02-01T12:38:11;14.52;;;5.57;;
55575;SDS011;41437;45.478;9.116;2023-02-01T12:41:40;13.65;;;5.60;;
55575;SDS011;41437;45.478;9.116;2023-02-01T12:44:56;18.08;;;6.00;;
55575;SDS011;41437;45.478;9.116;2023-02-01T12:48:07;13.90;;;5.68;;
55575;SDS011;41437;45.478;9.116;2023-02-01T12:51:23;12.18;;;6.07;;
55575;SDS011;41437;45.478;9.116;2023-02-01T12:54:29;12.60;;;6.30;;
55575;SDS011;41437;45.478;9.116;2023-02-01T12:57:40;16.75;;;6.40;;
55575;SDS011;41437;45.478;9.116;2023-02-01T13:00:49;12.77;;;6.72;;
55575;SDS011;41437;45.478;9.116;2023-02-01T13:03:56;10.68;;;6.13;;
55575;SDS011;41437;45.478;9.116;2023-02-01T13:07:07;12.02;;;5.97;;
55575;SDS011;41437;45.478;9.116;2023-02-01T13:10:15;16.80;;;6.60;;
55575;SDS011;41437;45.478;9.116;2023-02-01T13:13:26;26.60;;;7.53;;
55575;SDS011;41437;45.478;9.116;2023-02-01T13:16:34;14.35;;;6.47;;
55575;SDS011;41437;45.478;9.116;2023-02-01T13:19:41;13.48;;;6.22;;
55575;SDS011;41437;45.478;9.116;2023-02-01T13:22:48;14.35;;;6.53;;
55575;SDS011;41437;45.478;9.116;2023-02-01T13:25:54;14.82;;;5.95;;
55575;SDS011;41437;45.478;9.116;2023-02-01T13:28:59;13.90;;;5.63;;
55575;SDS011;41437;45.478;9.116;2023-02-01T13:32:14;12.55;;;5.00;;
55575;SDS011;41437;45.478;9.116;2023-02-01T13:35:36;17.20;;;5.65;;
55575;SDS011;41437;45.478;9.116;2023-02-01T13:39:14;14.10;;;4.97;;
55575;SDS011;41437;45.478;9.116;2023-02-01T13:42:43;13.30;;;5.03;;
55575;SDS011;41437;45.478;9.116;2023-02-01T13:45:54;11.82;;;5.05;;
55575;SDS011;41437;45.478;9.116;2023-02-01T13:48:58;14.02;;;5.18;;
55575;SDS011;41437;45.478;9.116;2023-02-01T13:52:03;10.40;;;4.60;;
55575;SDS011;41437;45.478;9.116;2023-02-01T13:55:22;9.63;;;4.30;;
55575;SDS011;41437;45.478;9.116;2023-02-01T14:01:35;11.93;;;4.43;;
55575;SDS011;41437;45.478;9.116;2023-02-01T14:08:02;10.48;;;4.20;;
55575;SDS011;41437;45.478;9.116;2023-02-01T14:11:32;12.73;;;4.15;;
55575;SDS011;41437;45.478;9.116;2023-02-01T14:14:40;9.77;;;4.07;;
55575;SDS011;41437;45.478;9.116;2023-02-01T14:17:43;11.45;;;4.55;;
55575;SDS011;41437;45.478;9.116;2023-02-01T14:20:45;12.82;;;4.75;;
55575;SDS011;41437;45.478;9.116;2023-02-01T14:23:55;16.67;;;4.75;;
55575;SDS011;41437;45.478;9.116;2023-02-01T14:27:00;13.00;;;4.63;;
55575;SDS011;41437;45.478;9.116;2023-02-01T14:30:17;13.25;;;3.95;;
55575;SDS011;41437;45.478;9.116;2023-02-01T14:33:22;14.65;;;4.22;;
55575;SDS011;41437;45.478;9.116;2023-02-01T14:36:26;11.65;;;4.68;;
55575;SDS011;41437;45.478;9.116;2023-02-01T14:39:49;8.10;;;4.03;;
55575;SDS011;41437;45.478;9.116;2023-02-01T14:43:02;11.40;;;4.30;;
55575;SDS011;41437;45.478;9.116;2023-02-01T14:46:04;13.98;;;4.82;;
55575;SDS011;41437;45.478;9.116;2023-02-01T14:49:07;15.35;;;4.53;;
55575;SDS011;41437;45.478;9.116;2023-02-01T14:52:09;12.30;;;4.47;;
55575;SDS011;41437;45.478;9.116;2023-02-01T14:55:15;10.50;;;4.32;;
55575;SDS011;41437;45.478;9.116;2023-02-01T14:58:27;16.80;;;4.97;;
55575;SDS011;41437;45.478;9.116;2023-02-01T15:01:36;14.90;;;4.72;;
55575;SDS011;41437;45.478;9.116;2023-02-01T15:04:53;8.40;;;4.38;;
55575;SDS011;41437;45.478;9.116;2023-02-01T15:07:57;11.15;;;4.82;;
55575;SDS011;41437;45.478;9.116;2023-02-01T15:11:11;11.27;;;4.60;;
55575;SDS011;41437;45.478;9.116;2023-02-01T15:14:16;12.57;;;4.82;;
55575;SDS011;41437;45.478;9.116;2023-02-01T15:17:18;13.35;;;4.70;;
55575;SDS011;41437;45.478;9.116;2023-02-01T15:20:23;19.80;;;5.75;;
55575;SDS011;41437;45.478;9.116;2023-02-01T15:23:27;18.08;;;5.72;;
55575;SDS011;41437;45.478;9.116;2023-02-01T15:26:30;15.18;;;5.78;;
55575;SDS011;41437;45.478;9.116;2023-02-01T15:29:34;13.90;;;5.68;;
55575;SDS011;41437;45.478;9.116;2023-02-01T15:32:36;15.87;;;6.23;;
55575;SDS011;41437;45.478;9.116;2023-02-01T15:38:46;15.95;;;6.30;;
55575;SDS011;41437;45.478;9.116;2023-02-01T15:41:49;12.43;;;6.05;;
55575;SDS011;41437;45.478;9.116;2023-02-01T15:44:53;14.20;;;6.15;;
55575;SDS011;41437;45.478;9.116;2023-02-01T15:47:56;13.45;;;6.50;;
55575;SDS011;41437;45.478;9.116;2023-02-01T15:51:01;12.10;;;6.47;;
55575;SDS011;41437;45.478;9.116;2023-02-01T15:54:13;15.15;;;7.03;;
55575;SDS011;41437;45.478;9.116;2023-02-01T15:57:21;18.70;;;7.20;;
55575;SDS011;41437;45.478;9.116;2023-02-01T16:00:31;17.55;;;7.60;;
55575;SDS011;41437;45.478;9.116;2023-02-01T16:03:43;17.58;;;8.00;;
55575;SDS011;41437;45.478;9.116;2023-02-01T16:06:50;19.02;;;7.53;;
55575;SDS011;41437;45.478;9.116;2023-02-01T16:09:54;18.40;;;7.65;;
55575;SDS011;41437;45.478;9.116;2023-02-01T16:12:57;16.52;;;7.95;;
55575;SDS011;41437;45.478;9.116;2023-02-01T16:16:00;18.05;;;8.00;;
55575;SDS011;41437;45.478;9.116;2023-02-01T16:19:02;15.57;;;7.93;;
55575;SDS011;41437;45.478;9.116;2023-02-01T16:22:07;15.77;;;7.70;;
55575;SDS011;41437;45.478;9.116;2023-02-01T16:25:09;18.40;;;7.63;;
55575;SDS011;41437;45.478;9.116;2023-02-01T16:28:10;17.05;;;7.38;;
55575;SDS011;41437;45.478;9.116;2023-02-01T16:31:12;17.92;;;7.72;;
55575;SDS011;41437;45.478;9.116;2023-02-01T16:34:19;18.10;;;7.22;;
55575;SDS011;41437;45.478;9.116;2023-02-01T16:37:23;16.83;;;7.72;;
55575;SDS011;41437;45.478;9.116;2023-02-01T16:40:27;18.45;;;8.38;;
55575;SDS011;41437;45.478;9.116;2023-02-01T16:43:29;17.10;;;7.43;;
55575;SDS011;41437;45.478;9.116;2023-02-01T16:46:32;21.33;;;7.60;;
55575;SDS011;41437;45.478;9.116;2023-02-01T16:49:36;16.15;;;8.05;;
55575;SDS011;41437;45.478;9.116;2023-02-01T16:52:39;17.60;;;7.93;;
55575;SDS011;41437;45.478;9.116;2023-02-01T16:55:41;23.73;;;9.27;;
55575;SDS011;41437;45.478;9.116;2023-02-01T16:58:43;20.40;;;9.60;;
55575;SDS011;41437;45.478;9.116;2023-02-01T17:01:45;21.50;;;9.25;;
55575;SDS011;41437;45.478;9.116;2023-02-01T17:04:46;21.02;;;9.23;;
55575;SDS011;41437;45.478;9.116;2023-02-01T17:07:50;24.45;;;9.45;;
55575;SDS011;41437;45.478;9.116;2023-02-01T17:10:52;21.48;;;9.35;;
55575;SDS011;41437;45.478;9.116;2023-02-01T17:13:53;20.60;;;9.82;;
55575;SDS011;41437;45.478;9.116;2023-02-01T17:16:56;24.77;;;9.68;;
55575;SDS011;41437;45.478;9.116;2023-02-01T17:19:57;17.70;;;9.75;;
55575;SDS011;41437;45.478;9.116;2023-02-01T17:23:00;19.48;;;10.90;;
55575;SDS011;41437;45.478;9.116;2023-02-01T17:26:02;16.35;;;9.38;;
55575;SDS011;41437;45.478;9.116;2023-02-01T17:29:04;21.90;;;9.00;;
55575;SDS011;41437;45.478;9.116;2023-02-01T17:32:07;21.77;;;9.38;;
55575;SDS011;41437;45.478;9.116;2023-02-01T17:35:18;19.42;;;9.30;;
55575;SDS011;41437;45.478;9.116;2023-02-01T17:38:23;19.58;;;9.80;;
55575;SDS011;41437;45.478;9.116;2023-02-01T17:41:25;23.10;;;9.95;;
55575;SDS011;41437;45.478;9.116;2023-02-01T17:44:27;18.70;;;9.50;;
55575;SDS011;41437;45.478;9.116;2023-02-01T17:47:29;16.05;;;10.18;;
55575;SDS011;41437;45.478;9.116;2023-02-01T17:50:33;22.27;;;9.82;;
55575;SDS011;41437;45.478;9.116;2023-02-01T17:53:38;19.73;;;10.70;;
55575;SDS011;41437;45.478;9.116;2023-02-01T17:56:40;22.83;;;10.43;;
55575;SDS011;41437;45.478;9.116;2023-02-01T17:59:42;20.17;;;10.63;;
55575;SDS011;41437;45.478;9.116;2023-02-01T18:02:44;17.60;;;10.18;;
55575;SDS011;41437;45.478;9.116;2023-02-01T18:05:45;19.23;;;9.70;;
55575;SDS011;41437;45.478;9.116;2023-02-01T18:08:51;18.85;;;9.85;;
55575;SDS011;41437;45.478;9.116;2023-02-01T18:11:53;19.88;;;10.77;;
55575;SDS011;41437;45.478;9.116;2023-02-01T18:14:55;20.73;;;10.55;;
55575;SDS011;41437;45.478;9.116;2023-02-01T18:17:57;21.83;;;9.70;;
55575;SDS011;41437;45.478;9.116;2023-02-01T18:21:00;20.40;;;10.05;;
55575;SDS011;41437;45.478;9.116;2023-02-01T18:24:03;26.60;;;10.73;;
55575;SDS011;41437;45.478;9.116;2023-02-01T18:27:06;21.40;;;10.80;;
55575;SDS011;41437;45.478;9.116;2023-02-01T18:30:10;20.15;;;10.63;;
55575;SDS011;41437;45.478;9.116;2023-02-01T18:33:13;19.15;;;10.90;;
55575;SDS011;41437;45.478;9.116;2023-02-01T18:36:16;22.70;;;10.77;;
55575;SDS011;41437;45.478;9.116;2023-02-01T18:39:19;20.17;;;10.85;;
55575;SDS011;41437;45.478;9.116;2023-02-01T18:42:20;25.73;;;11.27;;